createdAt,value
2019-02-11T00:00:42.592Z,1.70
2019-02-11T00:01:42.557Z,1.70
2019-02-11T00:02:42.520Z,1.40
2019-02-11T00:03:42.485Z,1.90
2019-02-11T00:04:42.449Z,2.00
2019-02-11T00:05:42.413Z,1.50
2019-02-11T00:06:42.378Z,1.50
2019-02-11T00:07:42.342Z,1.80
2019-02-11T00:08:42.305Z,1.70
2019-02-11T00:09:42.270Z,2.00
2019-02-11T00:10:42.235Z,2.20
2019-02-11T00:11:42.200Z,1.80
2019-02-11T00:12:42.162Z,1.50
2019-02-11T00:13:42.127Z,1.50
2019-02-11T00:14:42.094Z,1.50
2019-02-11T00:15:42.055Z,1.60
2019-02-11T00:16:42.018Z,1.60
2019-02-11T00:17:41.983Z,1.50
2019-02-11T00:18:41.947Z,1.40
2019-02-11T00:19:41.911Z,1.40
2019-02-11T00:20:41.883Z,1.60
2019-02-11T00:21:41.839Z,1.60
2019-02-11T00:22:41.802Z,1.50
2019-02-11T00:23:41.768Z,2.40
2019-02-11T00:24:41.731Z,1.50
2019-02-11T00:25:41.722Z,1.40
2019-02-11T00:26:41.659Z,1.50
2019-02-11T00:27:41.622Z,1.50
2019-02-11T00:28:41.586Z,1.60
2019-02-11T00:29:41.551Z,1.50
2019-02-11T00:30:41.514Z,1.30
2019-02-11T00:31:41.479Z,1.60
2019-02-11T00:32:41.441Z,2.00
2019-02-11T00:33:41.405Z,1.50
2019-02-11T00:34:41.372Z,1.40
2019-02-11T00:35:41.333Z,2.00
2019-02-11T00:36:41.296Z,2.30
2019-02-11T00:37:41.260Z,1.80
2019-02-11T00:38:41.251Z,1.90
2019-02-11T00:39:41.188Z,2.00
2019-02-11T00:40:41.151Z,2.70
2019-02-11T00:41:41.116Z,2.40
2019-02-11T00:42:41.081Z,3.70
2019-02-11T00:43:41.043Z,3.90
2019-02-11T00:44:41.007Z,2.80
2019-02-11T00:45:40.973Z,4.20
2019-02-11T00:46:40.935Z,4.20
2019-02-11T00:47:40.899Z,3.50
2019-02-11T00:48:40.861Z,4.00
2019-02-11T00:49:40.826Z,4.40
2019-02-11T00:50:40.791Z,3.90
2019-02-11T00:51:40.752Z,5.90
2019-02-11T00:52:40.718Z,5.60
2019-02-11T00:53:40.681Z,5.30
2019-02-11T00:54:40.644Z,5.90
2019-02-11T00:55:40.607Z,5.20
2019-02-11T00:56:40.572Z,6.70
2019-02-11T00:57:40.536Z,10.50
2019-02-11T00:58:40.503Z,10.00
2019-02-11T00:59:40.464Z,11.40
2019-02-11T01:00:40.429Z,15.80
2019-02-11T01:01:40.391Z,10.90
2019-02-11T01:02:40.356Z,15.20
2019-02-11T01:03:40.320Z,12.90
2019-02-11T01:04:40.284Z,15.90
2019-02-11T01:05:40.248Z,15.90
2019-02-11T01:06:40.212Z,16.90
2019-02-11T01:07:40.178Z,17.20
2019-02-11T01:08:40.140Z,17.70
2019-02-11T01:09:40.107Z,17.70
2019-02-11T01:10:40.069Z,25.70
2019-02-11T01:11:40.034Z,23.00
2019-02-11T01:12:39.998Z,16.40
2019-02-11T01:13:39.962Z,22.00
2019-02-11T01:14:39.926Z,19.10
2019-02-11T01:15:39.891Z,25.10
2019-02-11T01:16:39.854Z,22.70
2019-02-11T01:17:39.819Z,24.50
2019-02-11T01:18:39.785Z,25.10
2019-02-11T01:19:39.748Z,31.00
2019-02-11T01:20:39.713Z,21.00
2019-02-11T01:21:39.677Z,24.90
2019-02-11T01:22:39.642Z,23.20
2019-02-11T01:23:39.608Z,25.00
2019-02-11T01:24:39.576Z,24.10
2019-02-11T01:25:39.538Z,25.20
2019-02-11T01:26:39.502Z,15.40
2019-02-11T01:27:39.467Z,21.50
2019-02-11T01:28:39.431Z,21.70
2019-02-11T01:29:39.394Z,23.90
2019-02-11T01:30:39.359Z,14.30
2019-02-11T01:31:39.324Z,24.30
2019-02-11T01:32:39.287Z,21.30
2019-02-11T01:33:39.257Z,28.20
2019-02-11T01:34:39.219Z,25.30
2019-02-11T01:35:39.183Z,21.00
2019-02-11T01:36:39.149Z,21.90
2019-02-11T01:37:39.113Z,18.90
2019-02-11T01:38:39.078Z,18.10
2019-02-11T01:39:39.045Z,19.00
2019-02-11T01:40:39.010Z,16.40
2019-02-11T01:41:38.974Z,19.30
2019-02-11T01:42:38.937Z,19.00
2019-02-11T01:43:38.903Z,26.30
2019-02-11T01:44:38.871Z,13.30
2019-02-11T01:45:38.845Z,27.60
2019-02-11T01:46:38.798Z,16.70
2019-02-11T01:47:38.762Z,24.00
2019-02-11T01:48:38.729Z,22.70
2019-02-11T01:49:38.692Z,10.90
2019-02-11T01:50:38.660Z,19.90
2019-02-11T01:51:38.623Z,17.60
2019-02-11T01:52:38.588Z,21.60
2019-02-11T01:53:38.552Z,15.50
2019-02-11T01:54:38.517Z,19.70
2019-02-11T01:55:38.482Z,21.10
2019-02-11T01:56:38.448Z,21.10
2019-02-11T01:57:38.412Z,20.40
2019-02-11T01:58:38.377Z,18.30
2019-02-11T01:59:38.342Z,18.60
2019-02-11T02:00:38.307Z,19.30
2019-02-11T02:01:38.272Z,18.70
2019-02-11T02:02:38.237Z,20.70
2019-02-11T02:03:38.201Z,17.10
2019-02-11T02:04:38.167Z,23.00
2019-02-11T02:05:38.131Z,20.40
2019-02-11T02:06:38.098Z,19.30
2019-02-11T02:07:38.062Z,16.20
2019-02-11T02:08:38.026Z,13.30
2019-02-11T02:09:37.991Z,20.40
2019-02-11T02:10:37.957Z,22.50
2019-02-11T02:11:37.923Z,17.80
2019-02-11T02:12:37.887Z,14.80
2019-02-11T02:13:44.704Z,16.30
2019-02-11T02:14:37.819Z,24.90
2019-02-11T02:15:37.783Z,14.00
2019-02-11T02:16:37.747Z,13.80
2019-02-11T02:17:37.712Z,16.70
2019-02-11T02:18:37.681Z,10.40
2019-02-11T02:19:37.656Z,16.50
2019-02-11T02:20:37.608Z,12.40
2019-02-11T02:21:37.572Z,15.00
2019-02-11T02:22:37.537Z,10.80
2019-02-11T02:23:37.504Z,15.00
2019-02-11T02:24:37.468Z,15.20
2019-02-11T02:25:37.476Z,14.70
2019-02-11T02:26:37.397Z,11.50
2019-02-11T02:27:37.363Z,13.00
2019-02-11T02:28:37.327Z,15.90
2019-02-11T02:29:37.293Z,15.30
2019-02-11T02:30:37.259Z,14.50
2019-02-11T02:31:37.222Z,17.90
2019-02-11T02:32:37.186Z,13.30
2019-02-11T02:33:37.153Z,16.20
2019-02-11T02:34:37.119Z,16.80
2019-02-11T02:35:37.086Z,8.50
2019-02-11T02:36:37.049Z,11.00
2019-02-11T02:37:37.013Z,13.00
2019-02-11T02:38:36.991Z,14.20
2019-02-11T02:39:36.942Z,11.60
2019-02-11T02:40:36.910Z,14.20
2019-02-11T02:41:36.876Z,15.10
2019-02-11T02:42:36.839Z,16.90
2019-02-11T02:43:36.802Z,10.20
2019-02-11T02:44:36.769Z,10.10
2019-02-11T02:45:36.733Z,14.20
2019-02-11T02:46:36.698Z,15.40
2019-02-11T02:47:36.664Z,18.10
2019-02-11T02:48:36.630Z,16.80
2019-02-11T02:49:36.595Z,13.50
2019-02-11T02:50:36.561Z,15.90
2019-02-11T02:51:36.525Z,8.90
2019-02-11T02:52:36.489Z,10.00
2019-02-11T02:53:36.455Z,11.80
2019-02-11T02:54:36.423Z,14.00
2019-02-11T02:55:36.385Z,21.30
2019-02-11T02:56:36.352Z,12.20
2019-02-11T02:57:36.315Z,13.60
2019-02-11T02:58:36.281Z,12.00
2019-02-11T02:59:36.246Z,13.00
2019-02-11T03:00:36.217Z,9.70
2019-02-11T03:01:36.177Z,18.40
2019-02-11T03:02:36.142Z,14.60
2019-02-11T03:03:36.108Z,14.40
2019-02-11T03:04:36.072Z,17.20
2019-02-11T03:05:36.040Z,17.60
2019-02-11T03:06:36.003Z,11.60
2019-02-11T03:07:35.968Z,13.90
2019-02-11T03:08:35.933Z,12.50
2019-02-11T03:09:35.900Z,8.40
2019-02-11T03:10:35.864Z,9.00
2019-02-11T03:11:35.829Z,9.60
2019-02-11T03:12:35.802Z,14.30
2019-02-11T03:13:35.760Z,11.10
2019-02-11T03:14:35.726Z,10.20
2019-02-11T03:15:35.692Z,13.30
2019-02-11T03:16:35.656Z,11.10
2019-02-11T03:17:35.622Z,9.80
2019-02-11T03:18:35.589Z,14.60
2019-02-11T03:19:35.552Z,11.10
2019-02-11T03:20:35.519Z,9.70
2019-02-11T03:21:35.486Z,9.60
2019-02-11T03:22:35.452Z,11.90
2019-02-11T03:23:35.414Z,13.80
2019-02-11T03:24:35.378Z,11.50
2019-02-11T03:25:35.344Z,10.50
2019-02-11T03:26:35.311Z,12.70
2019-02-11T03:27:35.277Z,11.40
2019-02-11T03:28:35.240Z,11.50
2019-02-11T03:29:35.205Z,11.70
2019-02-11T03:30:35.173Z,16.80
2019-02-11T03:31:35.138Z,14.20
2019-02-11T03:32:35.133Z,9.60
2019-02-11T03:33:35.069Z,15.40
2019-02-11T03:34:35.033Z,11.00
2019-02-11T03:35:34.997Z,16.20
2019-02-11T03:36:34.964Z,12.80
2019-02-11T03:37:34.928Z,14.00
2019-02-11T03:38:34.894Z,11.50
2019-02-11T03:39:34.860Z,13.90
2019-02-11T03:40:34.825Z,16.40
2019-02-11T03:41:34.793Z,10.50
2019-02-11T03:42:34.756Z,16.40
2019-02-11T03:43:34.722Z,13.50
2019-02-11T03:44:34.687Z,10.10
2019-02-11T03:45:34.653Z,12.70
2019-02-11T03:46:34.617Z,15.60
2019-02-11T03:47:34.584Z,11.50
2019-02-11T03:48:34.547Z,8.90
2019-02-11T03:49:34.515Z,15.70
2019-02-11T03:50:34.478Z,15.90
2019-02-11T03:51:34.450Z,8.80
2019-02-11T03:52:34.409Z,13.00
2019-02-11T03:53:34.375Z,8.60
2019-02-11T03:54:34.342Z,16.00
2019-02-11T03:55:34.310Z,10.50
2019-02-11T03:56:34.271Z,11.60
2019-02-11T03:57:34.239Z,12.10
2019-02-11T03:58:34.202Z,10.40
2019-02-11T03:59:34.167Z,12.10
2019-02-11T04:00:34.134Z,13.80
2019-02-11T04:01:34.099Z,16.60
2019-02-11T04:02:34.064Z,13.40
2019-02-11T04:03:34.029Z,11.40
2019-02-11T04:04:33.994Z,14.00
2019-02-11T04:05:33.961Z,16.40
2019-02-11T04:06:33.925Z,9.60
2019-02-11T04:07:33.890Z,9.20
2019-02-11T04:08:33.856Z,7.40
2019-02-11T04:09:33.823Z,7.60
2019-02-11T04:10:33.786Z,13.40
2019-02-11T04:11:33.755Z,9.20
2019-02-11T04:12:33.717Z,7.40
2019-02-11T04:13:33.683Z,10.90
2019-02-11T04:14:33.647Z,11.50
2019-02-11T04:15:33.614Z,10.10
2019-02-11T04:16:33.579Z,9.10
2019-02-11T04:17:33.546Z,21.40
2019-02-11T04:18:33.511Z,14.10
2019-02-11T04:19:33.475Z,11.50
2019-02-11T04:20:33.439Z,13.50
2019-02-11T04:21:33.405Z,11.30
2019-02-11T04:22:33.371Z,13.30
2019-02-11T04:23:33.336Z,12.70
2019-02-11T04:24:33.301Z,13.70
2019-02-11T04:25:33.268Z,10.80
2019-02-11T04:26:33.233Z,13.10
2019-02-11T04:27:33.200Z,14.30
2019-02-11T04:28:33.162Z,7.80
2019-02-11T04:29:33.129Z,10.70
2019-02-11T04:30:33.095Z,12.90
2019-02-11T04:31:33.059Z,10.80
2019-02-11T04:32:33.024Z,12.90
2019-02-11T04:33:32.990Z,12.20
2019-02-11T04:34:32.955Z,11.80
2019-02-11T04:35:32.921Z,17.80
2019-02-11T04:36:32.886Z,11.10
2019-02-11T04:37:32.852Z,15.00
2019-02-11T04:38:32.820Z,12.50
2019-02-11T04:39:32.782Z,10.60
2019-02-11T04:40:32.751Z,15.30
2019-02-11T04:41:32.722Z,13.70
2019-02-11T04:42:32.680Z,9.80
2019-02-11T04:43:32.644Z,15.40
2019-02-11T04:44:34.243Z,16.00
2019-02-11T04:45:32.574Z,14.10
2019-02-11T04:46:32.542Z,11.40
2019-02-11T04:47:32.506Z,12.90
2019-02-11T04:48:32.470Z,14.40
2019-02-11T04:49:32.435Z,14.40
2019-02-11T04:50:32.402Z,11.10
2019-02-11T04:51:32.367Z,10.00
2019-02-11T04:52:32.336Z,12.70
2019-02-11T04:53:32.298Z,8.40
2019-02-11T04:54:32.264Z,15.00
2019-02-11T04:55:32.228Z,16.40
2019-02-11T04:56:32.192Z,12.80
2019-02-11T04:57:32.216Z,10.80
2019-02-11T04:58:32.125Z,11.90
2019-02-11T04:59:32.091Z,15.30
2019-02-11T05:00:32.111Z,11.10
2019-02-11T05:01:32.024Z,13.40
2019-02-11T05:02:31.985Z,12.80
2019-02-11T05:03:31.952Z,8.90
2019-02-11T05:04:31.916Z,11.00
2019-02-11T05:05:31.894Z,9.20
2019-02-11T05:06:31.847Z,14.40
2019-02-11T05:07:31.814Z,12.90
2019-02-11T05:08:31.777Z,14.70
2019-02-11T05:09:31.744Z,13.10
2019-02-11T05:10:31.713Z,10.70
2019-02-11T05:11:31.673Z,10.10
2019-02-11T05:12:31.638Z,13.20
2019-02-11T05:13:31.604Z,10.80
2019-02-11T05:14:31.569Z,15.50
2019-02-11T05:15:31.534Z,9.80
2019-02-11T05:16:31.502Z,13.70
2019-02-11T05:17:31.469Z,8.00
2019-02-11T05:18:31.433Z,16.80
2019-02-11T05:19:31.397Z,10.10
2019-02-11T05:20:31.363Z,10.70
2019-02-11T05:21:31.328Z,13.90
2019-02-11T05:22:31.296Z,10.10
2019-02-11T05:23:31.261Z,10.00
2019-02-11T05:24:31.224Z,10.50
2019-02-11T05:25:31.191Z,11.90
2019-02-11T05:26:31.158Z,8.10
2019-02-11T05:27:31.124Z,7.70
2019-02-11T05:28:31.088Z,8.40
2019-02-11T05:29:31.062Z,8.50
2019-02-11T05:30:31.020Z,8.00
2019-02-11T05:31:32.715Z,11.40
2019-02-11T05:32:30.956Z,10.80
2019-02-11T05:33:30.916Z,8.40
2019-02-11T05:34:30.881Z,9.30
2019-02-11T05:35:30.847Z,12.20
2019-02-11T05:36:30.816Z,8.40
2019-02-11T05:37:30.779Z,12.00
2019-02-11T05:38:30.744Z,12.90
2019-02-11T05:39:30.713Z,14.40
2019-02-11T05:40:30.675Z,11.70
2019-02-11T05:41:30.643Z,12.70
2019-02-11T05:42:30.606Z,11.20
2019-02-11T05:43:30.572Z,10.70
2019-02-11T05:44:30.538Z,16.00
2019-02-11T05:45:30.504Z,11.50
2019-02-11T05:46:30.471Z,11.00
2019-02-11T05:47:30.436Z,12.80
2019-02-11T05:48:30.402Z,11.60
2019-02-11T05:49:30.370Z,9.20
2019-02-11T05:50:30.333Z,13.40
2019-02-11T05:51:30.304Z,13.50
2019-02-11T05:52:30.266Z,10.70
2019-02-11T05:53:30.231Z,16.00
2019-02-11T05:54:30.196Z,10.30
2019-02-11T05:55:30.163Z,14.30
2019-02-11T05:56:30.130Z,10.50
2019-02-11T05:57:30.094Z,10.10
2019-02-11T05:58:30.061Z,14.30
2019-02-11T05:59:30.029Z,10.80
2019-02-11T06:00:29.991Z,9.90
2019-02-11T06:01:29.958Z,11.00
2019-02-11T06:02:29.924Z,5.40
2019-02-11T06:03:29.891Z,14.00
2019-02-11T06:04:29.854Z,12.30
2019-02-11T06:05:29.822Z,12.60
2019-02-11T06:06:29.792Z,9.30
2019-02-11T06:07:29.757Z,15.20
2019-02-11T06:08:29.719Z,10.80
2019-02-11T06:09:29.684Z,9.80
2019-02-11T06:10:29.651Z,10.70
2019-02-11T06:11:29.618Z,18.20
2019-02-11T06:12:29.581Z,8.90
2019-02-11T06:13:29.547Z,6.30
2019-02-11T06:14:29.515Z,9.90
2019-02-11T06:15:29.480Z,10.00
2019-02-11T06:16:29.445Z,10.90
2019-02-11T06:17:29.410Z,9.60
2019-02-11T06:18:29.382Z,9.10
2019-02-11T06:19:29.343Z,10.30
2019-02-11T06:20:29.308Z,6.60
2019-02-11T06:21:29.275Z,16.90
2019-02-11T06:22:29.240Z,12.00
2019-02-11T06:23:29.741Z,14.00
2019-02-11T06:24:29.171Z,9.20
2019-02-11T06:25:29.150Z,11.30
2019-02-11T06:26:29.105Z,11.60
2019-02-11T06:27:29.074Z,11.00
2019-02-11T06:28:29.035Z,15.30
2019-02-11T06:29:29.003Z,11.50
2019-02-11T06:30:28.969Z,10.70
2019-02-11T06:31:28.934Z,10.50
2019-02-11T06:32:28.900Z,10.50
2019-02-11T06:33:28.864Z,10.60
2019-02-11T06:34:28.831Z,12.30
2019-02-11T06:35:28.796Z,13.80
2019-02-11T06:36:28.763Z,10.50
2019-02-11T06:37:28.730Z,6.90
2019-02-11T06:38:28.696Z,10.10
2019-02-11T06:39:28.660Z,9.80
2019-02-11T06:40:28.630Z,11.10
2019-02-11T06:41:28.593Z,12.00
2019-02-11T06:42:28.559Z,12.10
2019-02-11T06:43:28.525Z,9.70
2019-02-11T06:44:28.489Z,17.70
2019-02-11T06:45:28.461Z,10.90
2019-02-11T06:46:29.260Z,12.40
2019-02-11T06:47:28.388Z,7.50
2019-02-11T06:48:28.352Z,11.80
2019-02-11T06:49:28.319Z,16.10
2019-02-11T06:50:28.286Z,10.60
2019-02-11T06:51:28.251Z,12.90
2019-02-11T06:52:28.216Z,16.60
2019-02-11T06:53:28.187Z,16.20
2019-02-11T06:54:28.150Z,14.20
2019-02-11T06:55:28.114Z,16.70
2019-02-11T06:56:28.079Z,16.10
2019-02-11T06:57:28.047Z,20.90
2019-02-11T06:58:28.012Z,19.60
2019-02-11T06:59:27.977Z,10.10
2019-02-11T07:00:27.943Z,20.30
2019-02-11T07:01:27.909Z,12.60
2019-02-11T07:02:27.885Z,13.00
2019-02-11T07:03:27.842Z,16.00
2019-02-11T07:04:27.807Z,15.00
2019-02-11T07:05:27.774Z,18.60
2019-02-11T07:06:27.739Z,17.90
2019-02-11T07:07:27.705Z,16.00
2019-02-11T07:08:27.670Z,14.40
2019-02-11T07:09:27.636Z,10.90
2019-02-11T07:10:27.603Z,13.50
2019-02-11T07:11:27.569Z,16.80
2019-02-11T07:12:27.535Z,16.00
2019-02-11T07:13:27.506Z,17.50
2019-02-11T07:14:27.467Z,17.90
2019-02-11T07:15:27.434Z,15.80
2019-02-11T07:16:27.398Z,16.20
2019-02-11T07:17:27.365Z,15.70
2019-02-11T07:18:27.330Z,17.10
2019-02-11T07:19:27.296Z,14.40
2019-02-11T07:20:27.262Z,17.30
2019-02-11T07:21:27.231Z,14.80
2019-02-11T07:22:27.194Z,11.00
2019-02-11T07:23:27.160Z,17.50
2019-02-11T07:24:27.129Z,13.90
2019-02-11T07:25:27.093Z,18.20
2019-02-11T07:26:27.059Z,15.00
2019-02-11T07:27:27.025Z,17.50
2019-02-11T07:28:26.990Z,13.80
2019-02-11T07:29:26.956Z,14.00
2019-02-11T07:30:26.922Z,14.80
2019-02-11T07:31:26.890Z,18.10
2019-02-11T07:32:26.854Z,13.50
2019-02-11T07:33:26.822Z,12.60
2019-02-11T07:34:26.786Z,12.70
2019-02-11T07:35:26.754Z,15.10
2019-02-11T07:36:26.721Z,18.10
2019-02-11T07:37:26.685Z,16.90
2019-02-11T07:38:26.651Z,16.60
2019-02-11T07:39:26.618Z,15.60
2019-02-11T07:40:26.582Z,16.70
2019-02-11T07:41:26.548Z,17.10
2019-02-11T07:42:26.519Z,12.30
2019-02-11T07:43:26.483Z,14.10
2019-02-11T07:44:26.447Z,21.40
2019-02-11T07:45:30.077Z,19.50
2019-02-11T07:46:26.381Z,15.80
2019-02-11T07:47:26.347Z,17.60
2019-02-11T07:48:26.314Z,17.10
2019-02-11T07:49:26.281Z,16.70
2019-02-11T07:50:26.243Z,14.30
2019-02-11T07:51:26.211Z,13.70
2019-02-11T07:52:27.147Z,13.60
2019-02-11T07:53:26.147Z,16.10
2019-02-11T07:54:26.109Z,16.60
2019-02-11T07:55:26.078Z,18.10
2019-02-11T07:56:26.042Z,17.40
2019-02-11T07:57:26.008Z,19.30
2019-02-11T07:58:25.975Z,15.50
2019-02-11T07:59:25.942Z,15.80
2019-02-11T08:00:25.918Z,18.00
2019-02-11T08:01:25.875Z,17.70
2019-02-11T08:02:25.847Z,13.90
2019-02-11T08:03:25.806Z,13.70
2019-02-11T08:04:25.773Z,14.80
2019-02-11T08:05:25.739Z,21.10
2019-02-11T08:06:25.705Z,17.00
2019-02-11T08:07:25.672Z,17.00
2019-02-11T08:08:25.639Z,15.10
2019-02-11T08:09:25.604Z,17.30
2019-02-11T08:10:25.571Z,14.60
2019-02-11T08:11:25.552Z,14.90
2019-02-11T08:12:25.505Z,13.00
2019-02-11T08:13:26.723Z,15.30
2019-02-11T08:14:25.437Z,13.90
2019-02-11T08:15:25.403Z,18.20
2019-02-11T08:16:25.368Z,16.50
2019-02-11T08:17:25.337Z,18.60
2019-02-11T08:18:25.302Z,15.10
2019-02-11T08:19:25.275Z,14.70
2019-02-11T08:20:25.234Z,13.20
2019-02-11T08:21:25.201Z,14.40
2019-02-11T08:22:25.169Z,14.00
2019-02-11T08:23:25.135Z,13.00
2019-02-11T08:24:25.101Z,10.70
2019-02-11T08:25:25.066Z,13.70
2019-02-11T08:26:25.038Z,16.70
2019-02-11T08:27:25.000Z,16.00
2019-02-11T08:28:24.965Z,18.20
2019-02-11T08:29:24.933Z,12.10
2019-02-11T08:30:24.901Z,15.60
2019-02-11T08:31:24.905Z,15.10
2019-02-11T08:32:24.833Z,13.00
2019-02-11T08:33:24.798Z,14.90
2019-02-11T08:34:24.765Z,13.30
2019-02-11T08:35:24.733Z,14.20
2019-02-11T08:36:24.697Z,13.60
2019-02-11T08:37:24.667Z,18.60
2019-02-11T08:38:24.632Z,18.80
2019-02-11T08:39:24.598Z,16.80
2019-02-11T08:40:24.564Z,16.20
2019-02-11T08:41:24.532Z,21.00
2019-02-11T08:42:24.497Z,13.40
2019-02-11T08:43:24.463Z,14.90
2019-02-11T08:44:24.431Z,17.90
2019-02-11T08:45:24.396Z,12.00
2019-02-11T08:46:24.365Z,25.00
2019-02-11T08:47:24.328Z,17.60
2019-02-11T08:48:24.296Z,14.40
2019-02-11T08:49:24.263Z,14.10
2019-02-11T08:50:24.229Z,15.40
2019-02-11T08:51:24.195Z,15.20
2019-02-11T08:52:24.171Z,17.50
2019-02-11T08:53:24.128Z,15.30
2019-02-11T08:54:24.100Z,15.30
2019-02-11T08:55:24.061Z,16.30
2019-02-11T08:56:24.029Z,19.60
2019-02-11T08:57:23.995Z,12.00
2019-02-11T08:58:23.961Z,11.70
2019-02-11T08:59:23.928Z,17.60
2019-02-11T09:00:23.895Z,12.00
2019-02-11T09:01:23.861Z,17.40
2019-02-11T09:02:23.828Z,21.50
2019-02-11T09:03:23.797Z,11.90
2019-02-11T09:04:23.760Z,12.70
2019-02-11T09:05:23.727Z,16.90
2019-02-11T09:06:23.695Z,8.80
2019-02-11T09:07:23.663Z,13.70
2019-02-11T09:08:23.628Z,12.10
2019-02-11T09:09:23.594Z,17.70
2019-02-11T09:10:23.562Z,16.10
2019-02-11T09:11:23.529Z,13.50
2019-02-11T09:12:23.495Z,16.70
2019-02-11T09:13:23.463Z,10.10
2019-02-11T09:14:23.429Z,9.40
2019-02-11T09:15:23.395Z,14.20
2019-02-11T09:16:23.361Z,14.60
2019-02-11T09:17:23.328Z,8.00
2019-02-11T09:18:23.295Z,14.30
2019-02-11T09:19:23.264Z,8.00
2019-02-11T09:20:23.229Z,11.40
2019-02-11T09:21:23.195Z,15.00
2019-02-11T09:22:23.162Z,11.80
2019-02-11T09:23:23.133Z,10.90
2019-02-11T09:24:23.095Z,12.70
2019-02-11T09:25:23.063Z,14.80
2019-02-11T09:26:23.030Z,10.50
2019-02-11T09:27:22.996Z,12.20
2019-02-11T09:28:22.963Z,14.40
2019-02-11T09:29:22.929Z,14.40
2019-02-11T09:30:22.898Z,9.50
2019-02-11T09:31:22.864Z,13.30
2019-02-11T09:32:22.830Z,15.10
2019-02-11T09:33:22.797Z,11.20
2019-02-11T09:34:22.765Z,17.70
2019-02-11T09:35:22.734Z,15.80
2019-02-11T09:36:22.699Z,18.00
2019-02-11T09:37:22.666Z,15.10
2019-02-11T09:38:22.634Z,9.90
2019-02-11T09:39:22.601Z,10.30
2019-02-11T09:40:22.568Z,13.60
2019-02-11T09:41:22.535Z,16.50
2019-02-11T09:42:22.505Z,18.30
2019-02-11T09:43:22.470Z,15.50
2019-02-11T09:44:29.499Z,14.20
2019-02-11T09:45:22.405Z,13.40
2019-02-11T09:46:22.371Z,13.80
2019-02-11T09:47:22.339Z,12.20
2019-02-11T09:48:22.304Z,15.90
2019-02-11T09:49:22.275Z,13.80
2019-02-11T09:50:22.241Z,12.30
2019-02-11T09:51:22.210Z,17.60
2019-02-11T09:52:22.175Z,23.30
2019-02-11T09:53:22.143Z,13.90
2019-02-11T09:54:22.111Z,13.60
2019-02-11T09:55:22.078Z,18.40
2019-02-11T09:56:22.045Z,12.60
2019-02-11T09:57:22.013Z,20.50
2019-02-11T09:58:21.979Z,11.50
2019-02-11T09:59:21.947Z,13.10
2019-02-11T10:00:21.914Z,13.30
2019-02-11T10:01:21.881Z,22.40
2019-02-11T10:02:21.849Z,18.00
2019-02-11T10:03:21.816Z,19.60
2019-02-11T10:04:23.612Z,15.20
2019-02-11T10:05:21.751Z,15.00
2019-02-11T10:06:21.719Z,11.60
2019-02-11T10:07:21.688Z,13.70
2019-02-11T10:08:21.653Z,12.20
2019-02-11T10:09:21.620Z,13.40
2019-02-11T10:10:21.591Z,21.10
2019-02-11T10:11:21.556Z,14.90
2019-02-11T10:12:21.618Z,15.90
2019-02-11T10:13:21.491Z,12.90
2019-02-11T10:14:21.458Z,20.10
2019-02-11T10:15:21.427Z,13.10
2019-02-11T10:16:22.339Z,13.30
2019-02-11T10:17:29.539Z,15.70
2019-02-11T10:18:21.329Z,16.40
2019-02-11T10:19:21.310Z,15.80
2019-02-11T10:20:21.265Z,12.40
2019-02-11T10:21:21.232Z,20.10
2019-02-11T10:22:21.201Z,18.00
2019-02-11T10:23:21.169Z,12.00
2019-02-11T10:24:21.136Z,15.30
2019-02-11T10:25:21.106Z,11.70
2019-02-11T10:26:21.072Z,10.60
2019-02-11T10:27:21.040Z,10.30
2019-02-11T10:28:21.007Z,14.00
2019-02-11T10:29:20.974Z,15.10
2019-02-11T10:30:20.942Z,16.20
2019-02-11T10:31:20.911Z,15.90
2019-02-11T10:32:20.877Z,17.30
2019-02-11T10:33:20.845Z,12.20
2019-02-11T10:34:20.812Z,11.10
2019-02-11T10:35:20.780Z,11.60
2019-02-11T10:36:20.747Z,13.60
2019-02-11T10:37:20.714Z,11.80
2019-02-11T10:38:20.684Z,14.60
2019-02-11T10:39:20.651Z,14.20
2019-02-11T10:40:20.618Z,18.10
2019-02-11T10:41:20.586Z,9.90
2019-02-11T10:42:20.553Z,11.50
2019-02-11T10:43:20.521Z,12.20
2019-02-11T10:44:20.492Z,17.60
2019-02-11T10:45:20.458Z,16.50
2019-02-11T10:46:21.234Z,17.20
2019-02-11T10:47:20.391Z,14.60
2019-02-11T10:48:20.356Z,14.90
2019-02-11T10:49:20.323Z,13.80
2019-02-11T10:50:20.293Z,18.90
2019-02-11T10:51:20.259Z,15.60
2019-02-11T10:52:20.226Z,17.30
2019-02-11T10:53:20.193Z,16.70
2019-02-11T10:54:20.160Z,8.30
2019-02-11T10:55:20.128Z,16.50
2019-02-11T10:56:21.794Z,13.60
2019-02-11T10:57:20.064Z,21.00
2019-02-11T10:58:20.030Z,17.00
2019-02-11T10:59:19.997Z,9.20
2019-02-11T11:00:19.963Z,12.40
2019-02-11T11:01:19.932Z,10.60
2019-02-11T11:02:19.899Z,16.50
2019-02-11T11:03:19.869Z,14.70
2019-02-11T11:04:19.834Z,10.70
2019-02-11T11:05:19.801Z,20.40
2019-02-11T11:06:19.769Z,16.00
2019-02-11T11:07:19.737Z,18.70
2019-02-11T11:08:19.703Z,13.30
2019-02-11T11:09:19.671Z,18.30
2019-02-11T11:10:19.638Z,14.30
2019-02-11T11:11:19.607Z,13.00
2019-02-11T11:12:19.586Z,8.50
2019-02-11T11:13:19.541Z,15.80
2019-02-11T11:14:19.507Z,14.70
2019-02-11T11:15:19.474Z,15.90
2019-02-11T11:16:19.444Z,14.30
2019-02-11T11:17:19.410Z,15.30
2019-02-11T11:18:19.378Z,15.20
2019-02-11T11:19:19.347Z,11.70
2019-02-11T11:20:19.314Z,13.70
2019-02-11T11:21:19.282Z,18.00
2019-02-11T11:22:19.250Z,11.60
2019-02-11T11:23:19.215Z,16.40
2019-02-11T11:24:19.185Z,9.90
2019-02-11T11:25:19.151Z,11.10
2019-02-11T11:26:19.117Z,18.20
2019-02-11T11:27:19.088Z,11.40
2019-02-11T11:28:19.052Z,14.80
2019-02-11T11:29:19.020Z,13.80
2019-02-11T11:30:18.987Z,16.30
2019-02-11T11:31:18.955Z,7.20
2019-02-11T11:32:18.921Z,16.00
2019-02-11T11:33:18.890Z,18.70
2019-02-11T11:34:18.857Z,19.40
2019-02-11T11:35:18.827Z,16.10
2019-02-11T11:36:18.791Z,12.10
2019-02-11T11:37:18.758Z,13.00
2019-02-11T11:38:18.726Z,15.30
2019-02-11T11:39:18.693Z,16.80
2019-02-11T11:40:18.660Z,14.10
2019-02-11T11:41:18.629Z,23.10
2019-02-11T11:42:18.600Z,20.10
2019-02-11T11:43:18.564Z,14.80
2019-02-11T11:44:18.531Z,22.60
2019-02-11T11:45:18.498Z,17.60
2019-02-11T11:46:18.466Z,16.70
2019-02-11T11:47:18.488Z,22.00
2019-02-11T11:48:18.400Z,10.80
2019-02-11T11:49:18.369Z,13.50
2019-02-11T11:50:18.336Z,17.00
2019-02-11T11:51:18.302Z,17.60
2019-02-11T11:52:18.304Z,15.90
2019-02-11T11:53:18.238Z,14.50
2019-02-11T11:54:18.205Z,17.10
2019-02-11T11:55:18.183Z,9.50
2019-02-11T11:56:18.140Z,11.70
2019-02-11T11:57:18.111Z,10.40
2019-02-11T11:58:18.085Z,16.90
2019-02-11T11:59:18.052Z,10.80
2019-02-11T12:00:18.011Z,19.40
2019-02-11T12:01:19.318Z,16.40
2019-02-11T12:02:17.948Z,16.20
2019-02-11T12:03:17.914Z,9.80
2019-02-11T12:04:17.876Z,11.40
2019-02-11T12:05:17.845Z,13.30
2019-02-11T12:06:17.814Z,11.80
2019-02-11T12:07:17.798Z,16.80
2019-02-11T12:08:17.752Z,14.50
2019-02-11T12:09:17.718Z,13.40
2019-02-11T12:10:17.684Z,13.20
2019-02-11T12:11:17.654Z,14.50
2019-02-11T12:12:17.632Z,17.30
2019-02-11T12:13:22.379Z,16.30
2019-02-11T12:14:17.555Z,14.70
2019-02-11T12:15:17.524Z,17.20
2019-02-11T12:16:17.485Z,11.10
2019-02-11T12:17:17.468Z,9.90
2019-02-11T12:18:17.425Z,13.90
2019-02-11T12:19:17.393Z,15.50
2019-02-11T12:20:17.379Z,13.00
2019-02-11T12:21:17.326Z,14.10
2019-02-11T12:22:17.292Z,12.00
2019-02-11T12:23:17.264Z,7.90
2019-02-11T12:24:17.230Z,13.70
2019-02-11T12:25:17.196Z,15.50
2019-02-11T12:26:21.032Z,11.30
2019-02-11T12:27:17.134Z,8.30
2019-02-11T12:28:17.099Z,16.40
2019-02-11T12:29:17.069Z,11.30
2019-02-11T12:30:17.037Z,11.90
2019-02-11T12:31:17.005Z,10.30
2019-02-11T12:32:16.967Z,9.60
2019-02-11T12:33:16.938Z,13.20
2019-02-11T12:34:16.919Z,15.40
2019-02-11T12:35:16.877Z,15.30
2019-02-11T12:36:16.843Z,14.80
2019-02-11T12:37:16.810Z,9.70
2019-02-11T12:38:16.779Z,11.90
2019-02-11T12:39:16.746Z,9.60
2019-02-11T12:40:16.713Z,17.20
2019-02-11T12:41:16.692Z,12.90
2019-02-11T12:42:16.648Z,15.10
2019-02-11T12:43:16.635Z,12.10
2019-02-11T12:44:16.599Z,9.90
2019-02-11T12:45:16.558Z,15.30
2019-02-11T12:46:16.531Z,13.10
2019-02-11T12:47:16.494Z,14.70
2019-02-11T12:48:16.462Z,12.40
2019-02-11T12:49:16.429Z,16.50
2019-02-11T12:50:16.415Z,11.30
2019-02-11T12:51:16.365Z,13.60
2019-02-11T12:52:16.333Z,14.40
2019-02-11T12:53:16.312Z,17.50
2019-02-11T12:54:16.275Z,11.60
2019-02-11T12:55:16.273Z,12.80
2019-02-11T12:56:16.205Z,14.30